sensor_id;sensor_type;location;lat;lon;timestamp;P1;durP1;ratioP1;P2;durP2;ratioP2
11500;SDS011;5807;51.606;7.624;2022-10-17T00:06:27;8.97;;;7.87;;
11500;SDS011;5807;51.606;7.624;2022-10-17T00:09:28;8.83;;;7.73;;
11500;SDS011;5807;51.606;7.624;2022-10-17T00:12:13;10.27;;;8.33;;
11500;SDS011;5807;51.606;7.624;2022-10-17T00:15:06;10.87;;;8.43;;
11500;SDS011;5807;51.606;7.624;2022-10-17T00:18:01;10.37;;;8.87;;
11500;SDS011;5807;51.606;7.624;2022-10-17T00:20:51;12.17;;;8.70;;
11500;SDS011;5807;51.606;7.624;2022-10-17T00:23:27;11.47;;;9.00;;
11500;SDS011;5807;51.606;7.624;2022-10-17T00:26:07;9.23;;;8.40;;
11500;SDS011;5807;51.606;7.624;2022-10-17T00:28:36;11.60;;;8.40;;
11500;SDS011;5807;51.606;7.624;2022-10-17T00:31:20;10.40;;;8.73;;
11500;SDS011;5807;51.606;7.624;2022-10-17T00:34:12;11.83;;;9.20;;
11500;SDS011;5807;51.606;7.624;2022-10-17T00:37:05;10.27;;;8.40;;
11500;SDS011;5807;51.606;7.624;2022-10-17T00:46:04;10.00;;;9.00;;
11500;SDS011;5807;51.606;7.624;2022-10-17T00:48:51;9.33;;;8.43;;
11500;SDS011;5807;51.606;7.624;2022-10-17T00:51:42;9.63;;;8.63;;
11500;SDS011;5807;51.606;7.624;2022-10-17T01:27:44;9.37;;;8.43;;
11500;SDS011;5807;51.606;7.624;2022-10-17T01:30:28;9.70;;;8.80;;
11500;SDS011;5807;51.606;7.624;2022-10-17T01:33:16;12.30;;;8.37;;
11500;SDS011;5807;51.606;7.624;2022-10-17T01:35:53;10.30;;;8.27;;
11500;SDS011;5807;51.606;7.624;2022-10-17T01:38:25;9.37;;;8.37;;
11500;SDS011;5807;51.606;7.624;2022-10-17T01:40:59;13.37;;;9.10;;
11500;SDS011;5807;51.606;7.624;2022-10-17T01:43:31;11.60;;;8.63;;
11500;SDS011;5807;51.606;7.624;2022-10-17T01:46:05;10.17;;;8.93;;
11500;SDS011;5807;51.606;7.624;2022-10-17T01:48:36;10.37;;;9.20;;
11500;SDS011;5807;51.606;7.624;2022-10-17T01:51:08;10.20;;;9.10;;
11500;SDS011;5807;51.606;7.624;2022-10-17T01:53:38;13.23;;;8.97;;
11500;SDS011;5807;51.606;7.624;2022-10-17T01:56:10;12.37;;;8.83;;
11500;SDS011;5807;51.606;7.624;2022-10-17T01:58:40;9.80;;;8.83;;
11500;SDS011;5807;51.606;7.624;2022-10-17T02:01:13;9.30;;;8.40;;
11500;SDS011;5807;51.606;7.624;2022-10-17T02:03:42;9.57;;;8.67;;
11500;SDS011;5807;51.606;7.624;2022-10-17T02:06:11;10.93;;;9.20;;
11500;SDS011;5807;51.606;7.624;2022-10-17T02:08:42;11.93;;;8.80;;
11500;SDS011;5807;51.606;7.624;2022-10-17T02:11:11;10.50;;;8.90;;
11500;SDS011;5807;51.606;7.624;2022-10-17T02:13:44;13.47;;;8.60;;
11500;SDS011;5807;51.606;7.624;2022-10-17T02:16:33;10.50;;;8.67;;
11500;SDS011;5807;51.606;7.624;2022-10-17T02:19:10;10.70;;;8.80;;
11500;SDS011;5807;51.606;7.624;2022-10-17T02:21:59;11.37;;;9.53;;
11500;SDS011;5807;51.606;7.624;2022-10-17T02:24:38;11.30;;;8.47;;
11500;SDS011;5807;51.606;7.624;2022-10-17T02:27:12;11.40;;;9.33;;
11500;SDS011;5807;51.606;7.624;2022-10-17T02:29:43;10.43;;;8.93;;
11500;SDS011;5807;51.606;7.624;2022-10-17T02:32:15;13.63;;;8.20;;
11500;SDS011;5807;51.606;7.624;2022-10-17T02:34:47;13.47;;;8.80;;
11500;SDS011;5807;51.606;7.624;2022-10-17T02:37:18;11.93;;;9.50;;
11500;SDS011;5807;51.606;7.624;2022-10-17T02:39:50;11.50;;;9.77;;
11500;SDS011;5807;51.606;7.624;2022-10-17T02:42:19;11.27;;;9.97;;
11500;SDS011;5807;51.606;7.624;2022-10-17T02:44:47;11.97;;;9.73;;
11500;SDS011;5807;51.606;7.624;2022-10-17T02:47:17;12.00;;;10.00;;
11500;SDS011;5807;51.606;7.624;2022-10-17T02:49:49;14.13;;;10.13;;
11500;SDS011;5807;51.606;7.624;2022-10-17T02:52:19;12.43;;;9.70;;
11500;SDS011;5807;51.606;7.624;2022-10-17T02:54:52;10.77;;;9.67;;
11500;SDS011;5807;51.606;7.624;2022-10-17T02:57:24;11.50;;;9.43;;
11500;SDS011;5807;51.606;7.624;2022-10-17T02:59:55;12.67;;;10.07;;
11500;SDS011;5807;51.606;7.624;2022-10-17T03:02:25;10.87;;;9.57;;
11500;SDS011;5807;51.606;7.624;2022-10-17T03:04:53;12.50;;;10.20;;
11500;SDS011;5807;51.606;7.624;2022-10-17T03:07:20;12.37;;;9.50;;
11500;SDS011;5807;51.606;7.624;2022-10-17T03:09:47;14.70;;;10.90;;
11500;SDS011;5807;51.606;7.624;2022-10-17T03:12:14;11.83;;;9.73;;
11500;SDS011;5807;51.606;7.624;2022-10-17T03:14:40;16.03;;;10.77;;
11500;SDS011;5807;51.606;7.624;2022-10-17T03:17:07;11.20;;;10.07;;
11500;SDS011;5807;51.606;7.624;2022-10-17T03:19:35;11.07;;;9.03;;
11500;SDS011;5807;51.606;7.624;2022-10-17T03:22:02;13.80;;;10.70;;
11500;SDS011;5807;51.606;7.624;2022-10-17T03:24:29;14.40;;;10.40;;
11500;SDS011;5807;51.606;7.624;2022-10-17T03:26:56;13.43;;;10.23;;
11500;SDS011;5807;51.606;7.624;2022-10-17T03:29:22;16.50;;;11.63;;
11500;SDS011;5807;51.606;7.624;2022-10-17T03:31:50;66.80;;;14.83;;
11500;SDS011;5807;51.606;7.624;2022-10-17T03:34:17;14.63;;;10.73;;
11500;SDS011;5807;51.606;7.624;2022-10-17T03:36:45;11.67;;;10.47;;
11500;SDS011;5807;51.606;7.624;2022-10-17T03:39:12;15.17;;;10.43;;
11500;SDS011;5807;51.606;7.624;2022-10-17T03:41:39;19.23;;;11.40;;
11500;SDS011;5807;51.606;7.624;2022-10-17T03:44:06;13.63;;;11.50;;
11500;SDS011;5807;51.606;7.624;2022-10-17T03:46:33;12.27;;;10.63;;
11500;SDS011;5807;51.606;7.624;2022-10-17T03:49:00;14.87;;;10.70;;
11500;SDS011;5807;51.606;7.624;2022-10-17T03:51:27;12.13;;;10.83;;
11500;SDS011;5807;51.606;7.624;2022-10-17T03:53:55;14.10;;;11.60;;
11500;SDS011;5807;51.606;7.624;2022-10-17T03:56:22;12.50;;;10.67;;
11500;SDS011;5807;51.606;7.624;2022-10-17T03:58:50;13.77;;;11.57;;
11500;SDS011;5807;51.606;7.624;2022-10-17T04:01:17;13.43;;;10.53;;
11500;SDS011;5807;51.606;7.624;2022-10-17T04:03:48;13.43;;;11.77;;
11500;SDS011;5807;51.606;7.624;2022-10-17T04:06:15;15.30;;;11.07;;
11500;SDS011;5807;51.606;7.624;2022-10-17T04:08:42;15.87;;;11.53;;
11500;SDS011;5807;51.606;7.624;2022-10-17T04:11:12;15.27;;;12.10;;
11500;SDS011;5807;51.606;7.624;2022-10-17T04:13:41;14.07;;;11.07;;
11500;SDS011;5807;51.606;7.624;2022-10-17T04:16:09;15.10;;;11.33;;
11500;SDS011;5807;51.606;7.624;2022-10-17T04:18:39;12.43;;;10.90;;
11500;SDS011;5807;51.606;7.624;2022-10-17T04:21:06;17.57;;;11.27;;
11500;SDS011;5807;51.606;7.624;2022-10-17T04:23:36;14.27;;;12.03;;
11500;SDS011;5807;51.606;7.624;2022-10-17T04:26:04;14.77;;;12.37;;
11500;SDS011;5807;51.606;7.624;2022-10-17T04:28:33;16.57;;;12.33;;
11500;SDS011;5807;51.606;7.624;2022-10-17T04:31:00;19.83;;;13.77;;
11500;SDS011;5807;51.606;7.624;2022-10-17T04:33:28;14.50;;;12.27;;
11500;SDS011;5807;51.606;7.624;2022-10-17T04:35:56;16.67;;;12.83;;
11500;SDS011;5807;51.606;7.624;2022-10-17T04:38:23;17.43;;;12.77;;
11500;SDS011;5807;51.606;7.624;2022-10-17T04:40:50;17.73;;;12.83;;
11500;SDS011;5807;51.606;7.624;2022-10-17T04:43:17;16.43;;;12.87;;
11500;SDS011;5807;51.606;7.624;2022-10-17T04:45:46;16.13;;;12.67;;
11500;SDS011;5807;51.606;7.624;2022-10-17T04:48:13;16.07;;;13.30;;
11500;SDS011;5807;51.606;7.624;2022-10-17T04:50:40;17.90;;;12.50;;
11500;SDS011;5807;51.606;7.624;2022-10-17T04:53:06;16.37;;;12.47;;
11500;SDS011;5807;51.606;7.624;2022-10-17T04:55:35;15.83;;;13.00;;
11500;SDS011;5807;51.606;7.624;2022-10-17T04:58:03;16.00;;;13.47;;
11500;SDS011;5807;51.606;7.624;2022-10-17T05:00:30;18.23;;;13.23;;
11500;SDS011;5807;51.606;7.624;2022-10-17T05:02:58;17.50;;;13.20;;
11500;SDS011;5807;51.606;7.624;2022-10-17T05:05:25;17.03;;;13.43;;
11500;SDS011;5807;51.606;7.624;2022-10-17T05:07:52;19.00;;;14.43;;
11500;SDS011;5807;51.606;7.624;2022-10-17T05:10:19;16.70;;;12.97;;
11500;SDS011;5807;51.606;7.624;2022-10-17T05:12:46;17.20;;;13.93;;
11500;SDS011;5807;51.606;7.624;2022-10-17T05:15:14;18.70;;;13.73;;
11500;SDS011;5807;51.606;7.624;2022-10-17T05:17:41;16.87;;;13.60;;
11500;SDS011;5807;51.606;7.624;2022-10-17T05:20:10;17.40;;;13.73;;
11500;SDS011;5807;51.606;7.624;2022-10-17T05:22:37;22.13;;;15.10;;
11500;SDS011;5807;51.606;7.624;2022-10-17T05:25:05;21.23;;;14.37;;
11500;SDS011;5807;51.606;7.624;2022-10-17T05:27:32;21.47;;;14.40;;
11500;SDS011;5807;51.606;7.624;2022-10-17T05:29:59;22.67;;;14.47;;
11500;SDS011;5807;51.606;7.624;2022-10-17T05:32:26;17.80;;;14.03;;
11500;SDS011;5807;51.606;7.624;2022-10-17T05:34:53;22.27;;;16.17;;
11500;SDS011;5807;51.606;7.624;2022-10-17T05:37:21;20.30;;;15.07;;
11500;SDS011;5807;51.606;7.624;2022-10-17T05:39:48;24.67;;;16.47;;
11500;SDS011;5807;51.606;7.624;2022-10-17T05:42:15;21.23;;;15.87;;
11500;SDS011;5807;51.606;7.624;2022-10-17T05:44:41;23.47;;;17.10;;
11500;SDS011;5807;51.606;7.624;2022-10-17T05:47:08;22.70;;;17.13;;
11500;SDS011;5807;51.606;7.624;2022-10-17T05:49:35;22.87;;;17.23;;
11500;SDS011;5807;51.606;7.624;2022-10-17T05:52:02;22.30;;;16.53;;
11500;SDS011;5807;51.606;7.624;2022-10-17T05:54:30;22.20;;;16.30;;
11500;SDS011;5807;51.606;7.624;2022-10-17T05:56:58;21.23;;;15.27;;
11500;SDS011;5807;51.606;7.624;2022-10-17T05:59:25;21.23;;;16.30;;
11500;SDS011;5807;51.606;7.624;2022-10-17T06:01:52;20.07;;;14.57;;
11500;SDS011;5807;51.606;7.624;2022-10-17T06:04:19;23.70;;;15.57;;
11500;SDS011;5807;51.606;7.624;2022-10-17T06:06:47;21.77;;;14.97;;
11500;SDS011;5807;51.606;7.624;2022-10-17T06:09:14;21.47;;;14.97;;
11500;SDS011;5807;51.606;7.624;2022-10-17T06:11:42;21.63;;;15.43;;
11500;SDS011;5807;51.606;7.624;2022-10-17T06:14:09;23.83;;;14.93;;
11500;SDS011;5807;51.606;7.624;2022-10-17T06:16:36;22.17;;;15.50;;
11500;SDS011;5807;51.606;7.624;2022-10-17T06:19:03;19.23;;;15.37;;
11500;SDS011;5807;51.606;7.624;2022-10-17T06:21:30;22.53;;;14.63;;
11500;SDS011;5807;51.606;7.624;2022-10-17T06:24:00;22.13;;;15.03;;
11500;SDS011;5807;51.606;7.624;2022-10-17T06:26:27;22.23;;;14.07;;
11500;SDS011;5807;51.606;7.624;2022-10-17T06:28:55;24.37;;;15.10;;
11500;SDS011;5807;51.606;7.624;2022-10-17T06:31:22;23.77;;;14.67;;
11500;SDS011;5807;51.606;7.624;2022-10-17T06:33:49;22.87;;;15.53;;
11500;SDS011;5807;51.606;7.624;2022-10-17T06:36:16;18.07;;;14.07;;
11500;SDS011;5807;51.606;7.624;2022-10-17T06:38:43;25.97;;;14.30;;
11500;SDS011;5807;51.606;7.624;2022-10-17T06:41:11;18.87;;;12.83;;
11500;SDS011;5807;51.606;7.624;2022-10-17T06:43:40;19.40;;;14.03;;
11500;SDS011;5807;51.606;7.624;2022-10-17T06:46:11;19.13;;;13.23;;
11500;SDS011;5807;51.606;7.624;2022-10-17T06:48:38;18.93;;;13.60;;
11500;SDS011;5807;51.606;7.624;2022-10-17T06:51:06;15.27;;;12.00;;
11500;SDS011;5807;51.606;7.624;2022-10-17T06:53:36;15.47;;;13.33;;
11500;SDS011;5807;51.606;7.624;2022-10-17T06:56:04;17.00;;;13.07;;
11500;SDS011;5807;51.606;7.624;2022-10-17T06:58:32;19.97;;;14.87;;
11500;SDS011;5807;51.606;7.624;2022-10-17T07:01:01;20.67;;;14.97;;
11500;SDS011;5807;51.606;7.624;2022-10-17T07:03:31;19.00;;;13.30;;
11500;SDS011;5807;51.606;7.624;2022-10-17T07:05:57;19.03;;;14.23;;
11500;SDS011;5807;51.606;7.624;2022-10-17T07:08:24;21.60;;;15.43;;
11500;SDS011;5807;51.606;7.624;2022-10-17T07:10:51;17.77;;;13.73;;
11500;SDS011;5807;51.606;7.624;2022-10-17T07:13:18;18.87;;;14.97;;
11500;SDS011;5807;51.606;7.624;2022-10-17T07:15:45;20.47;;;14.67;;
11500;SDS011;5807;51.606;7.624;2022-10-17T07:18:13;19.67;;;13.90;;
11500;SDS011;5807;51.606;7.624;2022-10-17T07:20:41;15.33;;;13.33;;
11500;SDS011;5807;51.606;7.624;2022-10-17T07:23:08;17.53;;;13.17;;
11500;SDS011;5807;51.606;7.624;2022-10-17T07:25:35;22.17;;;14.33;;
11500;SDS011;5807;51.606;7.624;2022-10-17T07:28:02;22.93;;;13.10;;
11500;SDS011;5807;51.606;7.624;2022-10-17T07:30:29;24.50;;;13.40;;
11500;SDS011;5807;51.606;7.624;2022-10-17T07:32:56;26.97;;;14.47;;
11500;SDS011;5807;51.606;7.624;2022-10-17T07:35:23;20.47;;;13.70;;
11500;SDS011;5807;51.606;7.624;2022-10-17T07:37:51;22.63;;;14.57;;
11500;SDS011;5807;51.606;7.624;2022-10-17T07:40:18;22.93;;;14.13;;
11500;SDS011;5807;51.606;7.624;2022-10-17T07:42:45;20.90;;;14.87;;
11500;SDS011;5807;51.606;7.624;2022-10-17T07:45:12;27.50;;;15.13;;
11500;SDS011;5807;51.606;7.624;2022-10-17T07:47:39;18.27;;;12.93;;
11500;SDS011;5807;51.606;7.624;2022-10-17T07:50:06;22.20;;;13.00;;
11500;SDS011;5807;51.606;7.624;2022-10-17T07:52:34;18.57;;;12.93;;
11500;SDS011;5807;51.606;7.624;2022-10-17T07:55:02;18.60;;;13.47;;
11500;SDS011;5807;51.606;7.624;2022-10-17T07:57:29;18.30;;;13.90;;
11500;SDS011;5807;51.606;7.624;2022-10-17T07:59:56;21.87;;;14.13;;
11500;SDS011;5807;51.606;7.624;2022-10-17T08:02:24;19.10;;;12.97;;
11500;SDS011;5807;51.606;7.624;2022-10-17T08:04:52;18.33;;;13.20;;
11500;SDS011;5807;51.606;7.624;2022-10-17T08:07:19;18.87;;;12.70;;
11500;SDS011;5807;51.606;7.624;2022-10-17T08:09:46;18.67;;;12.90;;
11500;SDS011;5807;51.606;7.624;2022-10-17T08:12:14;16.00;;;13.77;;
11500;SDS011;5807;51.606;7.624;2022-10-17T08:14:41;19.53;;;12.83;;
11500;SDS011;5807;51.606;7.624;2022-10-17T08:17:08;18.53;;;14.33;;
11500;SDS011;5807;51.606;7.624;2022-10-17T08:19:36;14.33;;;12.60;;
11500;SDS011;5807;51.606;7.624;2022-10-17T08:22:03;15.50;;;12.63;;
11500;SDS011;5807;51.606;7.624;2022-10-17T08:24:30;13.07;;;11.70;;
11500;SDS011;5807;51.606;7.624;2022-10-17T08:26:57;13.53;;;11.60;;
11500;SDS011;5807;51.606;7.624;2022-10-17T08:29:26;16.83;;;10.53;;
11500;SDS011;5807;51.606;7.624;2022-10-17T08:31:53;12.87;;;11.57;;
11500;SDS011;5807;51.606;7.624;2022-10-17T08:34:20;15.00;;;10.93;;
11500;SDS011;5807;51.606;7.624;2022-10-17T08:36:46;11.90;;;10.30;;
11500;SDS011;5807;51.606;7.624;2022-10-17T08:39:13;14.70;;;10.83;;
11500;SDS011;5807;51.606;7.624;2022-10-17T08:41:46;12.37;;;10.27;;
11500;SDS011;5807;51.606;7.624;2022-10-17T08:44:27;12.17;;;10.87;;
11500;SDS011;5807;51.606;7.624;2022-10-17T08:47:06;12.20;;;10.70;;
11500;SDS011;5807;51.606;7.624;2022-10-17T08:49:38;16.70;;;10.57;;
11500;SDS011;5807;51.606;7.624;2022-10-17T08:52:13;11.73;;;9.40;;
11500;SDS011;5807;51.606;7.624;2022-10-17T08:54:44;17.00;;;15.30;;
11500;SDS011;5807;51.606;7.624;2022-10-17T08:57:12;11.60;;;8.80;;
11500;SDS011;5807;51.606;7.624;2022-10-17T08:59:41;11.07;;;8.53;;
11500;SDS011;5807;51.606;7.624;2022-10-17T09:02:14;9.77;;;8.87;;
11500;SDS011;5807;51.606;7.624;2022-10-17T09:04:58;10.93;;;7.67;;
11500;SDS011;5807;51.606;7.624;2022-10-17T09:07:36;7.60;;;6.80;;
11500;SDS011;5807;51.606;7.624;2022-10-17T09:10:10;9.63;;;7.20;;
11500;SDS011;5807;51.606;7.624;2022-10-17T09:12:45;6.13;;;5.50;;
11500;SDS011;5807;51.606;7.624;2022-10-17T09:15:28;6.23;;;5.50;;
11500;SDS011;5807;51.606;7.624;2022-10-17T09:18:06;5.53;;;4.53;;
11500;SDS011;5807;51.606;7.624;2022-10-17T09:20:39;5.07;;;4.57;;
11500;SDS011;5807;51.606;7.624;2022-10-17T09:23:10;8.20;;;4.97;;
11500;SDS011;5807;51.606;7.624;2022-10-17T09:25:41;4.90;;;4.40;;
11500;SDS011;5807;51.606;7.624;2022-10-17T09:28:12;8.77;;;4.23;;
11500;SDS011;5807;51.606;7.624;2022-10-17T09:30:45;4.90;;;4.20;;
11500;SDS011;5807;51.606;7.624;2022-10-17T09:33:13;5.87;;;3.90;;
11500;SDS011;5807;51.606;7.624;2022-10-17T09:35:41;6.23;;;4.50;;
11500;SDS011;5807;51.606;7.624;2022-10-17T09:38:12;4.57;;;4.07;;
11500;SDS011;5807;51.606;7.624;2022-10-17T09:40:41;4.20;;;3.80;;
11500;SDS011;5807;51.606;7.624;2022-10-17T09:43:10;5.70;;;3.80;;
11500;SDS011;5807;51.606;7.624;2022-10-17T09:45:39;6.03;;;3.80;;
11500;SDS011;5807;51.606;7.624;2022-10-17T09:48:14;4.67;;;3.60;;
11500;SDS011;5807;51.606;7.624;2022-10-17T09:50:48;8.10;;;4.30;;
11500;SDS011;5807;51.606;7.624;2022-10-17T09:53:17;10.27;;;3.50;;
11500;SDS011;5807;51.606;7.624;2022-10-17T09:55:49;7.20;;;4.00;;
11500;SDS011;5807;51.606;7.624;2022-10-17T09:58:19;4.33;;;3.40;;
11500;SDS011;5807;51.606;7.624;2022-10-17T10:00:47;5.60;;;3.70;;
11500;SDS011;5807;51.606;7.624;2022-10-17T10:03:15;7.67;;;3.50;;
11500;SDS011;5807;51.606;7.624;2022-10-17T10:05:56;4.63;;;4.00;;
11500;SDS011;5807;51.606;7.624;2022-10-17T10:08:26;4.23;;;3.63;;
11500;SDS011;5807;51.606;7.624;2022-10-17T10:10:58;4.90;;;3.30;;
11500;SDS011;5807;51.606;7.624;2022-10-17T10:13:28;4.27;;;3.87;;
11500;SDS011;5807;51.606;7.624;2022-10-17T10:16:11;5.57;;;3.10;;
11500;SDS011;5807;51.606;7.624;2022-10-17T10:18:41;5.37;;;3.73;;
11500;SDS011;5807;51.606;7.624;2022-10-17T10:21:09;5.97;;;3.53;;
11500;SDS011;5807;51.606;7.624;2022-10-17T10:23:39;5.70;;;3.53;;
11500;SDS011;5807;51.606;7.624;2022-10-17T10:26:21;4.47;;;3.40;;
11500;SDS011;5807;51.606;7.624;2022-10-17T10:28:50;6.47;;;3.60;;
11500;SDS011;5807;51.606;7.624;2022-10-17T10:31:25;4.57;;;3.30;;
11500;SDS011;5807;51.606;7.624;2022-10-17T10:33:54;3.90;;;3.50;;
11500;SDS011;5807;51.606;7.624;2022-10-17T10:36:21;4.50;;;3.27;;
11500;SDS011;5807;51.606;7.624;2022-10-17T10:38:50;3.33;;;3.03;;
11500;SDS011;5807;51.606;7.624;2022-10-17T10:41:20;4.43;;;3.33;;
11500;SDS011;5807;51.606;7.624;2022-10-17T10:43:47;4.93;;;3.53;;
11500;SDS011;5807;51.606;7.624;2022-10-17T10:46:16;7.47;;;3.63;;
11500;SDS011;5807;51.606;7.624;2022-10-17T10:48:53;11.30;;;3.83;;
11500;SDS011;5807;51.606;7.624;2022-10-17T10:51:25;5.27;;;3.30;;
11500;SDS011;5807;51.606;7.624;2022-10-17T10:53:57;9.07;;;3.57;;
11500;SDS011;5807;51.606;7.624;2022-10-17T10:56:29;4.57;;;3.30;;
11500;SDS011;5807;51.606;7.624;2022-10-17T10:59:02;5.03;;;3.97;;
11500;SDS011;5807;51.606;7.624;2022-10-17T11:01:33;6.70;;;3.47;;
11500;SDS011;5807;51.606;7.624;2022-10-17T11:04:14;3.43;;;3.10;;
11500;SDS011;5807;51.606;7.624;2022-10-17T11:06:46;4.73;;;3.30;;
11500;SDS011;5807;51.606;7.624;2022-10-17T11:09:24;5.50;;;3.40;;
11500;SDS011;5807;51.606;7.624;2022-10-17T11:11:58;4.57;;;3.50;;
11500;SDS011;5807;51.606;7.624;2022-10-17T11:14:33;8.90;;;3.73;;
11500;SDS011;5807;51.606;7.624;2022-10-17T11:17:09;4.23;;;3.33;;
11500;SDS011;5807;51.606;7.624;2022-10-17T11:19:46;3.50;;;3.03;;
11500;SDS011;5807;51.606;7.624;2022-10-17T11:22:22;6.50;;;3.20;;
11500;SDS011;5807;51.606;7.624;2022-10-17T11:24:55;7.20;;;3.57;;
11500;SDS011;5807;51.606;7.624;2022-10-17T11:27:25;3.47;;;3.20;;
11500;SDS011;5807;51.606;7.624;2022-10-17T11:29:54;4.20;;;3.80;;
11500;SDS011;5807;51.606;7.624;2022-10-17T11:32:23;4.10;;;3.37;;
11500;SDS011;5807;51.606;7.624;2022-10-17T11:34:57;7.60;;;3.87;;
11500;SDS011;5807;51.606;7.624;2022-10-17T11:37:31;9.23;;;4.23;;
11500;SDS011;5807;51.606;7.624;2022-10-17T11:40:03;5.03;;;3.70;;
11500;SDS011;5807;51.606;7.624;2022-10-17T11:42:42;6.27;;;3.93;;
11500;SDS011;5807;51.606;7.624;2022-10-17T11:45:17;4.97;;;4.03;;
11500;SDS011;5807;51.606;7.624;2022-10-17T11:47:47;7.50;;;3.40;;
11500;SDS011;5807;51.606;7.624;2022-10-17T11:50:21;4.17;;;3.23;;
11500;SDS011;5807;51.606;7.624;2022-10-17T11:52:51;3.60;;;3.30;;
11500;SDS011;5807;51.606;7.624;2022-10-17T11:55:22;3.73;;;3.13;;
11500;SDS011;5807;51.606;7.624;2022-10-17T11:57:55;4.47;;;3.23;;
11500;SDS011;5807;51.606;7.624;2022-10-17T12:00:51;5.47;;;3.90;;
11500;SDS011;5807;51.606;7.624;2022-10-17T12:03:29;8.53;;;3.60;;
11500;SDS011;5807;51.606;7.624;2022-10-17T12:06:10;6.97;;;4.33;;
11500;SDS011;5807;51.606;7.624;2022-10-17T12:08:43;5.53;;;3.50;;
11500;SDS011;5807;51.606;7.624;2022-10-17T12:11:20;7.73;;;3.90;;
11500;SDS011;5807;51.606;7.624;2022-10-17T12:13:58;11.53;;;3.67;;
11500;SDS011;5807;51.606;7.624;2022-10-17T12:24:53;4.07;;;3.63;;
11500;SDS011;5807;51.606;7.624;2022-10-17T12:27:33;8.77;;;3.87;;
11500;SDS011;5807;51.606;7.624;2022-10-17T12:30:03;5.13;;;3.37;;
11500;SDS011;5807;51.606;7.624;2022-10-17T12:32:51;6.07;;;3.53;;
11500;SDS011;5807;51.606;7.624;2022-10-17T12:35:21;6.17;;;3.63;;
11500;SDS011;5807;51.606;7.624;2022-10-17T12:37:59;5.23;;;3.40;;
11500;SDS011;5807;51.606;7.624;2022-10-17T12:40:48;6.67;;;3.80;;
11500;SDS011;5807;51.606;7.624;2022-10-17T12:49:18;6.73;;;3.60;;
11500;SDS011;5807;51.606;7.624;2022-10-17T12:52:05;6.97;;;3.57;;
11500;SDS011;5807;51.606;7.624;2022-10-17T12:54:44;5.70;;;3.27;;
11500;SDS011;5807;51.606;7.624;2022-10-17T12:57:14;5.93;;;3.20;;
11500;SDS011;5807;51.606;7.624;2022-10-17T12:59:45;4.93;;;3.40;;
11500;SDS011;5807;51.606;7.624;2022-10-17T13:02:15;5.60;;;3.40;;
11500;SDS011;5807;51.606;7.624;2022-10-17T13:04:45;7.63;;;3.53;;
11500;SDS011;5807;51.606;7.624;2022-10-17T13:07:15;4.67;;;3.57;;
11500;SDS011;5807;51.606;7.624;2022-10-17T13:09:46;5.47;;;3.70;;
11500;SDS011;5807;51.606;7.624;2022-10-17T13:12:17;3.97;;;3.53;;
11500;SDS011;5807;51.606;7.624;2022-10-17T13:14:49;4.23;;;3.80;;
11500;SDS011;5807;51.606;7.624;2022-10-17T13:17:22;7.17;;;3.57;;
11500;SDS011;5807;51.606;7.624;2022-10-17T13:19:51;7.83;;;3.70;;
11500;SDS011;5807;51.606;7.624;2022-10-17T13:22:19;6.83;;;3.60;;
11500;SDS011;5807;51.606;7.624;2022-10-17T13:24:48;5.40;;;3.93;;
11500;SDS011;5807;51.606;7.624;2022-10-17T13:27:24;10.40;;;3.80;;
11500;SDS011;5807;51.606;7.624;2022-10-17T13:29:52;3.83;;;3.53;;
11500;SDS011;5807;51.606;7.624;2022-10-17T13:32:20;6.43;;;3.83;;
11500;SDS011;5807;51.606;7.624;2022-10-17T13:35:03;7.83;;;3.70;;
11500;SDS011;5807;51.606;7.624;2022-10-17T13:37:32;4.00;;;3.47;;
11500;SDS011;5807;51.606;7.624;2022-10-17T13:40:01;5.53;;;4.37;;
11500;SDS011;5807;51.606;7.624;2022-10-17T13:42:30;7.17;;;4.20;;
11500;SDS011;5807;51.606;7.624;2022-10-17T13:45:02;6.93;;;4.20;;
11500;SDS011;5807;51.606;7.624;2022-10-17T13:47:31;5.70;;;3.60;;
11500;SDS011;5807;51.606;7.624;2022-10-17T13:50:02;6.07;;;3.90;;
11500;SDS011;5807;51.606;7.624;2022-10-17T13:52:31;7.37;;;3.77;;
11500;SDS011;5807;51.606;7.624;2022-10-17T13:55:07;7.90;;;4.03;;
11500;SDS011;5807;51.606;7.624;2022-10-17T13:57:39;5.40;;;3.87;;
11500;SDS011;5807;51.606;7.624;2022-10-17T14:00:10;7.60;;;4.23;;
11500;SDS011;5807;51.606;7.624;2022-10-17T14:02:41;4.50;;;4.07;;
11500;SDS011;5807;51.606;7.624;2022-10-17T14:05:10;4.47;;;4.07;;
11500;SDS011;5807;51.606;7.624;2022-10-17T14:07:39;5.53;;;4.20;;
11500;SDS011;5807;51.606;7.624;2022-10-17T14:10:17;4.20;;;3.80;;
11500;SDS011;5807;51.606;7.624;2022-10-17T14:12:46;4.67;;;3.77;;
11500;SDS011;5807;51.606;7.624;2022-10-17T14:15:13;3.50;;;3.20;;
11500;SDS011;5807;51.606;7.624;2022-10-17T14:17:41;3.50;;;3.17;;
11500;SDS011;5807;51.606;7.624;2022-10-17T14:20:15;5.83;;;3.80;;
11500;SDS011;5807;51.606;7.624;2022-10-17T14:22:43;11.67;;;4.27;;
11500;SDS011;5807;51.606;7.624;2022-10-17T14:25:29;5.20;;;3.30;;
11500;SDS011;5807;51.606;7.624;2022-10-17T14:28:00;5.57;;;3.10;;
11500;SDS011;5807;51.606;7.624;2022-10-17T14:30:33;5.70;;;4.30;;
11500;SDS011;5807;51.606;7.624;2022-10-17T14:33:05;4.43;;;3.70;;
11500;SDS011;5807;51.606;7.624;2022-10-17T14:35:33;5.27;;;3.73;;
11500;SDS011;5807;51.606;7.624;2022-10-17T14:38:01;5.13;;;4.10;;
11500;SDS011;5807;51.606;7.624;2022-10-17T14:40:31;8.73;;;4.00;;
11500;SDS011;5807;51.606;7.624;2022-10-17T14:43:01;5.00;;;4.07;;
11500;SDS011;5807;51.606;7.624;2022-10-17T14:45:30;8.20;;;4.23;;
11500;SDS011;5807;51.606;7.624;2022-10-17T14:47:59;5.27;;;4.00;;
11500;SDS011;5807;51.606;7.624;2022-10-17T14:50:29;4.53;;;3.90;;
11500;SDS011;5807;51.606;7.624;2022-10-17T14:52:58;5.80;;;3.87;;
11500;SDS011;5807;51.606;7.624;2022-10-17T14:55:27;5.57;;;3.67;;
11500;SDS011;5807;51.606;7.624;2022-10-17T14:57:56;7.47;;;4.10;;
11500;SDS011;5807;51.606;7.624;2022-10-17T15:00:23;4.70;;;4.17;;
11500;SDS011;5807;51.606;7.624;2022-10-17T15:02:51;6.23;;;4.37;;
11500;SDS011;5807;51.606;7.624;2022-10-17T15:05:19;8.33;;;4.17;;
11500;SDS011;5807;51.606;7.624;2022-10-17T15:07:47;4.83;;;4.40;;
11500;SDS011;5807;51.606;7.624;2022-10-17T15:10:22;6.43;;;4.50;;
11500;SDS011;5807;51.606;7.624;2022-10-17T15:12:57;5.83;;;4.27;;
11500;SDS011;5807;51.606;7.624;2022-10-17T15:15:25;5.70;;;5.03;;
11500;SDS011;5807;51.606;7.624;2022-10-17T15:17:52;5.27;;;4.73;;
11500;SDS011;5807;51.606;7.624;2022-10-17T15:20:19;5.47;;;3.53;;
11500;SDS011;5807;51.606;7.624;2022-10-17T15:22:50;5.17;;;4.40;;
11500;SDS011;5807;51.606;7.624;2022-10-17T15:25:17;6.37;;;3.93;;
11500;SDS011;5807;51.606;7.624;2022-10-17T15:27:43;5.17;;;3.90;;
11500;SDS011;5807;51.606;7.624;2022-10-17T15:30:16;7.67;;;4.23;;
11500;SDS011;5807;51.606;7.624;2022-10-17T15:32:45;5.13;;;4.67;;
11500;SDS011;5807;51.606;7.624;2022-10-17T15:35:12;4.77;;;3.97;;
11500;SDS011;5807;51.606;7.624;2022-10-17T15:37:39;5.50;;;4.17;;
11500;SDS011;5807;51.606;7.624;2022-10-17T15:40:08;7.43;;;4.43;;
11500;SDS011;5807;51.606;7.624;2022-10-17T15:42:38;7.97;;;4.50;;
11500;SDS011;5807;51.606;7.624;2022-10-17T15:45:07;7.93;;;4.57;;
11500;SDS011;5807;51.606;7.624;2022-10-17T15:47:36;7.30;;;5.07;;
11500;SDS011;5807;51.606;7.624;2022-10-17T15:50:03;5.43;;;4.93;;
11500;SDS011;5807;51.606;7.624;2022-10-17T15:52:32;8.03;;;5.07;;
11500;SDS011;5807;51.606;7.624;2022-10-17T15:54:59;11.30;;;5.67;;
11500;SDS011;5807;51.606;7.624;2022-10-17T15:57:27;6.80;;;5.37;;
11500;SDS011;5807;51.606;7.624;2022-10-17T15:59:56;6.87;;;5.60;;
11500;SDS011;5807;51.606;7.624;2022-10-17T16:02:24;8.50;;;5.80;;
11500;SDS011;5807;51.606;7.624;2022-10-17T16:04:53;8.30;;;5.50;;
11500;SDS011;5807;51.606;7.624;2022-10-17T16:07:19;7.23;;;5.33;;
11500;SDS011;5807;51.606;7.624;2022-10-17T16:09:46;7.40;;;6.10;;